sensor_id;sensor_type;location;lat;lon;timestamp;pressure;altitude;pressure_sealevel;temperature;humidity
25855;BME280;13680;49.936;11.344;2022-09-27T00:00:38;94951.94;;;12.45;79.04
25855;BME280;13680;49.936;11.344;2022-09-27T00:03:05;94951.94;;;12.45;79.23
25855;BME280;13680;49.936;11.344;2022-09-27T00:05:30;94948.97;;;12.50;78.93
25855;BME280;13680;49.936;11.344;2022-09-27T00:07:57;94948.19;;;12.50;79.15
25855;BME280;13680;49.936;11.344;2022-09-27T00:10:22;94947.34;;;12.46;79.19
25855;BME280;13680;49.936;11.344;2022-09-27T00:12:48;94948.47;;;12.44;79.14
25855;BME280;13680;49.936;11.344;2022-09-27T00:15:13;94942.72;;;12.46;78.74
25855;BME280;13680;49.936;11.344;2022-09-27T00:17:39;94948.03;;;12.42;79.46
25855;BME280;13680;49.936;11.344;2022-09-27T00:20:06;94941.22;;;12.49;79.08
25855;BME280;13680;49.936;11.344;2022-09-27T00:22:32;94930.34;;;12.41;79.51
25855;BME280;13680;49.936;11.344;2022-09-27T00:24:58;94933.44;;;12.43;80.21
25855;BME280;13680;49.936;11.344;2022-09-27T00:27:24;94927.47;;;12.54;79.05
25855;BME280;13680;49.936;11.344;2022-09-27T00:29:50;94935.13;;;12.52;78.99
25855;BME280;13680;49.936;11.344;2022-09-27T00:32:16;94926.84;;;12.41;79.82
25855;BME280;13680;49.936;11.344;2022-09-27T00:34:41;94930.84;;;12.27;79.80
25855;BME280;13680;49.936;11.344;2022-09-27T00:37:08;94919.31;;;12.31;79.17
25855;BME280;13680;49.936;11.344;2022-09-27T00:39:33;94916.28;;;12.32;79.32
25855;BME280;13680;49.936;11.344;2022-09-27T00:41:59;94916.72;;;12.15;79.42
25855;BME280;13680;49.936;11.344;2022-09-27T00:47:03;94904.47;;;12.17;80.14
25855;BME280;13680;49.936;11.344;2022-09-27T00:49:33;94894.94;;;12.23;80.13
25855;BME280;13680;49.936;11.344;2022-09-27T00:52:10;94897.63;;;12.23;80.48
25855;BME280;13680;49.936;11.344;2022-09-27T00:54:39;94893.22;;;12.35;80.09
25855;BME280;13680;49.936;11.344;2022-09-27T00:57:07;94892.94;;;12.40;79.87
25855;BME280;13680;49.936;11.344;2022-09-27T00:59:37;94889.75;;;12.34;79.97
25855;BME280;13680;49.936;11.344;2022-09-27T01:02:04;94886.00;;;12.39;79.72
25855;BME280;13680;49.936;11.344;2022-09-27T01:04:32;94885.28;;;12.42;79.52
25855;BME280;13680;49.936;11.344;2022-09-27T01:06:58;94881.84;;;12.45;79.47
25855;BME280;13680;49.936;11.344;2022-09-27T01:09:23;94876.91;;;12.47;79.54
25855;BME280;13680;49.936;11.344;2022-09-27T01:14:54;94861.44;;;12.44;79.91
25855;BME280;13680;49.936;11.344;2022-09-27T01:17:50;94867.44;;;12.34;80.00
25855;BME280;13680;49.936;11.344;2022-09-27T01:34:26;94847.28;;;12.27;81.23
25855;BME280;13680;49.936;11.344;2022-09-27T01:37:23;94847.78;;;11.55;83.27
25855;BME280;13680;49.936;11.344;2022-09-27T01:39:58;94830.84;;;11.93;81.95
25855;BME280;13680;49.936;11.344;2022-09-27T01:42:31;94840.50;;;11.94;80.97
25855;BME280;13680;49.936;11.344;2022-09-27T01:45:08;94832.13;;;11.60;82.93
25855;BME280;13680;49.936;11.344;2022-09-27T01:47:54;94827.72;;;11.91;80.90
25855;BME280;13680;49.936;11.344;2022-09-27T01:50:23;94826.91;;;12.07;80.40
25855;BME280;13680;49.936;11.344;2022-09-27T01:52:57;94822.06;;;12.16;79.96
25855;BME280;13680;49.936;11.344;2022-09-27T01:55:29;94822.13;;;12.20;80.16
25855;BME280;13680;49.936;11.344;2022-09-27T01:58:11;94818.28;;;12.21;80.10
25855;BME280;13680;49.936;11.344;2022-09-27T02:00:43;94820.22;;;12.20;80.11
25855;BME280;13680;49.936;11.344;2022-09-27T02:03:13;94813.78;;;12.05;81.26
25855;BME280;13680;49.936;11.344;2022-09-27T02:05:45;94804.69;;;12.14;80.79
25855;BME280;13680;49.936;11.344;2022-09-27T02:08:27;94814.34;;;12.15;81.18
25855;BME280;13680;49.936;11.344;2022-09-27T02:10:55;94811.13;;;12.28;80.69
25855;BME280;13680;49.936;11.344;2022-09-27T02:13:26;94808.53;;;12.13;80.56
25855;BME280;13680;49.936;11.344;2022-09-27T02:18:50;94803.22;;;12.16;81.50
25855;BME280;13680;49.936;11.344;2022-09-27T02:21:18;94802.00;;;12.14;81.65
25855;BME280;13680;49.936;11.344;2022-09-27T02:23:51;94803.34;;;12.04;81.56
25855;BME280;13680;49.936;11.344;2022-09-27T02:26:22;94802.22;;;12.05;81.51
25855;BME280;13680;49.936;11.344;2022-09-27T02:29:05;94808.09;;;12.10;81.67
25855;BME280;13680;49.936;11.344;2022-09-27T02:31:31;94795.56;;;11.99;80.73
25855;BME280;13680;49.936;11.344;2022-09-27T02:34:06;94794.00;;;11.98;80.49
25855;BME280;13680;49.936;11.344;2022-09-27T02:36:33;94798.81;;;11.88;80.88
25855;BME280;13680;49.936;11.344;2022-09-27T02:38:58;94793.28;;;11.81;81.23
25855;BME280;13680;49.936;11.344;2022-09-27T02:41:25;94801.25;;;11.74;81.15
25855;BME280;13680;49.936;11.344;2022-09-27T02:43:55;94800.38;;;11.70;81.59
25855;BME280;13680;49.936;11.344;2022-09-27T02:47:07;94795.06;;;11.73;81.93
25855;BME280;13680;49.936;11.344;2022-09-27T02:52:27;94797.38;;;11.75;80.23
25855;BME280;13680;49.936;11.344;2022-09-27T03:00:25;94794.97;;;11.70;81.55
25855;BME280;13680;49.936;11.344;2022-09-27T03:03:08;94789.59;;;11.70;81.68
25855;BME280;13680;49.936;11.344;2022-09-27T03:05:48;94780.47;;;11.74;80.67
25855;BME280;13680;49.936;11.344;2022-09-27T03:08:16;94769.47;;;11.83;80.57
25855;BME280;13680;49.936;11.344;2022-09-27T03:10:41;94779.81;;;11.81;80.88
25855;BME280;13680;49.936;11.344;2022-09-27T03:13:07;94767.69;;;11.91;80.07
25855;BME280;13680;49.936;11.344;2022-09-27T03:15:32;94768.00;;;11.86;80.36
25855;BME280;13680;49.936;11.344;2022-09-27T03:17:58;94770.69;;;11.86;80.79
25855;BME280;13680;49.936;11.344;2022-09-27T03:20:23;94765.38;;;11.89;80.79
25855;BME280;13680;49.936;11.344;2022-09-27T03:22:49;94765.22;;;11.82;80.77
25855;BME280;13680;49.936;11.344;2022-09-27T03:25:14;94767.69;;;11.91;80.25
25855;BME280;13680;49.936;11.344;2022-09-27T03:27:40;94760.69;;;11.86;80.30
25855;BME280;13680;49.936;11.344;2022-09-27T03:30:05;94766.22;;;11.93;79.98
25855;BME280;13680;49.936;11.344;2022-09-27T03:32:32;94758.41;;;11.88;79.89
25855;BME280;13680;49.936;11.344;2022-09-27T03:34:57;94768.13;;;11.73;80.76
25855;BME280;13680;49.936;11.344;2022-09-27T03:37:23;94757.50;;;11.81;80.60
25855;BME280;13680;49.936;11.344;2022-09-27T03:39:48;94762.25;;;11.87;80.31
25855;BME280;13680;49.936;11.344;2022-09-27T03:42:13;94759.31;;;11.53;81.74
25855;BME280;13680;49.936;11.344;2022-09-27T03:44:39;94756.66;;;11.57;81.37
25855;BME280;13680;49.936;11.344;2022-09-27T03:47:05;94746.13;;;11.68;80.80
25855;BME280;13680;49.936;11.344;2022-09-27T03:49:30;94751.00;;;11.62;81.92
25855;BME280;13680;49.936;11.344;2022-09-27T03:51:57;94746.53;;;11.70;81.86
25855;BME280;13680;49.936;11.344;2022-09-27T03:54:22;94739.25;;;11.70;82.15
25855;BME280;13680;49.936;11.344;2022-09-27T03:56:49;94753.34;;;11.44;82.15
25855;BME280;13680;49.936;11.344;2022-09-27T03:59:15;94744.97;;;11.49;82.56
25855;BME280;13680;49.936;11.344;2022-09-27T04:01:41;94747.81;;;11.56;82.78
25855;BME280;13680;49.936;11.344;2022-09-27T04:04:06;94744.78;;;11.58;83.02
25855;BME280;13680;49.936;11.344;2022-09-27T04:06:31;94742.72;;;11.51;82.46
25855;BME280;13680;49.936;11.344;2022-09-27T04:08:57;94735.78;;;11.50;82.18
25855;BME280;13680;49.936;11.344;2022-09-27T04:11:22;94743.50;;;11.52;82.29
25855;BME280;13680;49.936;11.344;2022-09-27T04:13:48;94745.13;;;11.56;82.80
25855;BME280;13680;49.936;11.344;2022-09-27T04:16:14;94733.25;;;11.57;82.74
25855;BME280;13680;49.936;11.344;2022-09-27T04:18:41;94741.69;;;11.56;82.86
25855;BME280;13680;49.936;11.344;2022-09-27T04:21:06;94736.34;;;11.59;83.12
25855;BME280;13680;49.936;11.344;2022-09-27T04:23:32;94734.56;;;11.67;82.75
25855;BME280;13680;49.936;11.344;2022-09-27T04:25:58;94730.38;;;11.70;82.08
25855;BME280;13680;49.936;11.344;2022-09-27T04:28:23;94728.34;;;11.43;83.52
25855;BME280;13680;49.936;11.344;2022-09-27T04:30:49;94729.03;;;11.40;83.00
25855;BME280;13680;49.936;11.344;2022-09-27T04:33:14;94735.34;;;11.48;82.82
25855;BME280;13680;49.936;11.344;2022-09-27T04:35:41;94729.75;;;11.57;82.47
25855;BME280;13680;49.936;11.344;2022-09-27T04:38:25;94733.03;;;11.46;82.66
25855;BME280;13680;49.936;11.344;2022-09-27T04:40:50;94737.75;;;11.14;83.96
25855;BME280;13680;49.936;11.344;2022-09-27T04:43:16;94739.19;;;11.47;82.86
25855;BME280;13680;49.936;11.344;2022-09-27T04:45:42;94736.84;;;11.45;82.53
25855;BME280;13680;49.936;11.344;2022-09-27T04:48:08;94740.03;;;11.51;82.54
25855;BME280;13680;49.936;11.344;2022-09-27T04:50:33;94735.91;;;11.38;83.49
25855;BME280;13680;49.936;11.344;2022-09-27T04:52:59;94737.13;;;11.60;82.89
25855;BME280;13680;49.936;11.344;2022-09-27T04:55:25;94737.50;;;11.58;82.71
25855;BME280;13680;49.936;11.344;2022-09-27T04:57:52;94741.72;;;11.59;82.70
25855;BME280;13680;49.936;11.344;2022-09-27T05:00:17;94737.31;;;11.71;82.61
25855;BME280;13680;49.936;11.344;2022-09-27T05:02:43;94745.97;;;11.60;83.13
25855;BME280;13680;49.936;11.344;2022-09-27T05:05:09;94738.31;;;11.43;83.38
25855;BME280;13680;49.936;11.344;2022-09-27T05:07:36;94751.72;;;11.59;82.95
25855;BME280;13680;49.936;11.344;2022-09-27T05:10:02;94741.78;;;11.24;83.57
25855;BME280;13680;49.936;11.344;2022-09-27T05:12:28;94772.44;;;11.19;83.40
25855;BME280;13680;49.936;11.344;2022-09-27T05:14:53;94769.41;;;10.85;84.83
25855;BME280;13680;49.936;11.344;2022-09-27T05:17:19;94773.78;;;10.58;84.76
25855;BME280;13680;49.936;11.344;2022-09-27T05:19:46;94778.06;;;10.94;83.55
25855;BME280;13680;49.936;11.344;2022-09-27T05:22:12;94779.94;;;10.74;84.49
25855;BME280;13680;49.936;11.344;2022-09-27T05:24:37;94778.88;;;11.14;82.89
25855;BME280;13680;49.936;11.344;2022-09-27T05:27:03;94773.84;;;11.13;82.26
25855;BME280;13680;49.936;11.344;2022-09-27T05:29:33;94779.97;;;11.29;81.42
25855;BME280;13680;49.936;11.344;2022-09-27T05:31:59;94778.69;;;11.23;81.96
25855;BME280;13680;49.936;11.344;2022-09-27T05:34:25;94780.72;;;11.30;81.77
25855;BME280;13680;49.936;11.344;2022-09-27T05:36:50;94772.66;;;11.30;81.20
25855;BME280;13680;49.936;11.344;2022-09-27T05:39:15;94781.44;;;11.07;81.36
25855;BME280;13680;49.936;11.344;2022-09-27T05:41:45;94791.53;;;10.78;82.40
25855;BME280;13680;49.936;11.344;2022-09-27T05:44:11;94786.25;;;10.82;82.91
25855;BME280;13680;49.936;11.344;2022-09-27T05:46:40;94787.84;;;11.03;81.94
25855;BME280;13680;49.936;11.344;2022-09-27T05:49:05;94790.72;;;11.10;82.39
25855;BME280;13680;49.936;11.344;2022-09-27T05:51:31;94790.91;;;11.01;83.16
25855;BME280;13680;49.936;11.344;2022-09-27T05:53:56;94791.09;;;10.92;83.08
25855;BME280;13680;49.936;11.344;2022-09-27T05:56:22;94790.84;;;10.50;85.15
25855;BME280;13680;49.936;11.344;2022-09-27T05:58:49;94792.56;;;10.90;83.21
25855;BME280;13680;49.936;11.344;2022-09-27T06:01:14;94798.78;;;11.10;82.35
25855;BME280;13680;49.936;11.344;2022-09-27T06:03:41;94798.66;;;10.55;84.56
25855;BME280;13680;49.936;11.344;2022-09-27T06:06:07;94800.19;;;10.88;83.43
25855;BME280;13680;49.936;11.344;2022-09-27T06:08:35;94796.34;;;11.05;82.67
25855;BME280;13680;49.936;11.344;2022-09-27T06:11:04;94790.00;;;11.13;82.64
25855;BME280;13680;49.936;11.344;2022-09-27T06:13:30;94799.72;;;11.02;82.72
25855;BME280;13680;49.936;11.344;2022-09-27T06:15:57;94799.28;;;11.00;82.75
25855;BME280;13680;49.936;11.344;2022-09-27T06:18:23;94799.09;;;11.08;83.04
25855;BME280;13680;49.936;11.344;2022-09-27T06:20:49;94795.66;;;11.27;82.57
25855;BME280;13680;49.936;11.344;2022-09-27T06:23:16;94800.50;;;11.38;82.43
25855;BME280;13680;49.936;11.344;2022-09-27T06:25:43;94809.09;;;11.43;82.80
25855;BME280;13680;49.936;11.344;2022-09-27T06:28:09;94797.16;;;11.25;82.56
25855;BME280;13680;49.936;11.344;2022-09-27T06:30:38;94796.19;;;11.53;82.02
25855;BME280;13680;49.936;11.344;2022-09-27T06:33:05;94801.13;;;11.31;82.36
25855;BME280;13680;49.936;11.344;2022-09-27T06:35:32;94806.03;;;11.25;82.95
25855;BME280;13680;49.936;11.344;2022-09-27T06:38:05;94810.31;;;11.30;82.90
25855;BME280;13680;49.936;11.344;2022-09-27T06:40:33;94813.28;;;11.25;82.44
25855;BME280;13680;49.936;11.344;2022-09-27T06:43:07;94815.25;;;11.08;83.48
25855;BME280;13680;49.936;11.344;2022-09-27T06:45:34;94818.59;;;11.21;82.75
25855;BME280;13680;49.936;11.344;2022-09-27T06:48:04;94820.59;;;11.24;82.76
25855;BME280;13680;49.936;11.344;2022-09-27T06:50:32;94816.03;;;11.09;83.26
25855;BME280;13680;49.936;11.344;2022-09-27T06:52:58;94825.22;;;11.08;83.31
25855;BME280;13680;49.936;11.344;2022-09-27T06:55:23;94824.53;;;11.11;83.42
25855;BME280;13680;49.936;11.344;2022-09-27T06:57:59;94820.75;;;10.80;84.57
25855;BME280;13680;49.936;11.344;2022-09-27T07:00:44;94819.97;;;10.63;85.75
25855;BME280;13680;49.936;11.344;2022-09-27T07:03:14;94822.28;;;10.97;84.40
25855;BME280;13680;49.936;11.344;2022-09-27T07:05:40;94824.28;;;11.00;84.02
25855;BME280;13680;49.936;11.344;2022-09-27T07:08:08;94830.97;;;11.06;84.01
25855;BME280;13680;49.936;11.344;2022-09-27T07:10:38;94826.28;;;11.03;84.13
25855;BME280;13680;49.936;11.344;2022-09-27T07:13:08;94834.47;;;10.75;85.15
25855;BME280;13680;49.936;11.344;2022-09-27T07:15:35;94851.09;;;10.64;85.08
25855;BME280;13680;49.936;11.344;2022-09-27T07:18:02;94845.03;;;10.84;85.66
25855;BME280;13680;49.936;11.344;2022-09-27T07:20:28;94856.50;;;10.80;85.44
25855;BME280;13680;49.936;11.344;2022-09-27T07:22:54;94861.84;;;10.64;85.75
25855;BME280;13680;49.936;11.344;2022-09-27T07:25:20;94866.72;;;10.75;85.48
25855;BME280;13680;49.936;11.344;2022-09-27T07:27:46;94871.38;;;10.78;84.79
25855;BME280;13680;49.936;11.344;2022-09-27T07:30:12;94878.44;;;10.67;85.09
25855;BME280;13680;49.936;11.344;2022-09-27T07:32:38;94888.31;;;10.78;83.83
25855;BME280;13680;49.936;11.344;2022-09-27T07:35:05;94897.56;;;10.49;84.90
25855;BME280;13680;49.936;11.344;2022-09-27T07:37:31;94888.13;;;10.71;83.73
25855;BME280;13680;49.936;11.344;2022-09-27T07:39:58;94894.03;;;10.77;82.39
25855;BME280;13680;49.936;11.344;2022-09-27T07:42:23;94893.66;;;10.62;83.52
25855;BME280;13680;49.936;11.344;2022-09-27T07:44:49;94903.28;;;10.47;83.82
25855;BME280;13680;49.936;11.344;2022-09-27T07:47:14;94910.34;;;10.68;83.13
25855;BME280;13680;49.936;11.344;2022-09-27T07:49:41;94902.31;;;10.40;84.88
25855;BME280;13680;49.936;11.344;2022-09-27T07:52:06;94919.00;;;10.77;83.30
25855;BME280;13680;49.936;11.344;2022-09-27T07:54:31;94924.81;;;10.35;84.55
25855;BME280;13680;49.936;11.344;2022-09-27T07:56:57;94927.31;;;10.72;84.02
25855;BME280;13680;49.936;11.344;2022-09-27T07:59:23;94922.47;;;10.34;84.60
25855;BME280;13680;49.936;11.344;2022-09-27T08:01:48;94936.03;;;9.96;87.68
25855;BME280;13680;49.936;11.344;2022-09-27T08:04:14;94936.16;;;10.57;84.86
25855;BME280;13680;49.936;11.344;2022-09-27T08:06:39;94954.28;;;10.19;86.29
25855;BME280;13680;49.936;11.344;2022-09-27T08:09:05;94951.66;;;10.07;88.11
25855;BME280;13680;49.936;11.344;2022-09-27T08:11:31;94953.44;;;10.43;85.47
25855;BME280;13680;49.936;11.344;2022-09-27T08:13:57;94957.25;;;10.71;84.71
25855;BME280;13680;49.936;11.344;2022-09-27T08:16:22;94955.81;;;11.05;82.39
25855;BME280;13680;49.936;11.344;2022-09-27T08:18:47;94954.16;;;11.17;83.12
25855;BME280;13680;49.936;11.344;2022-09-27T08:21:13;94954.84;;;10.97;82.39
25855;BME280;13680;49.936;11.344;2022-09-27T08:23:38;94960.59;;;11.28;81.89
25855;BME280;13680;49.936;11.344;2022-09-27T08:26:03;94961.44;;;11.00;82.40
25855;BME280;13680;49.936;11.344;2022-09-27T08:28:29;94957.28;;;11.35;81.17
25855;BME280;13680;49.936;11.344;2022-09-27T08:30:58;94952.34;;;11.37;80.97
25855;BME280;13680;49.936;11.344;2022-09-27T08:33:24;94966.81;;;11.16;83.19
25855;BME280;13680;49.936;11.344;2022-09-27T08:35:51;94976.97;;;11.07;82.65
25855;BME280;13680;49.936;11.344;2022-09-27T08:38:16;94981.00;;;10.69;84.16
25855;BME280;13680;49.936;11.344;2022-09-27T08:40:58;94986.47;;;10.72;84.63
25855;BME280;13680;49.936;11.344;2022-09-27T08:48:38;95004.94;;;10.45;84.19
25855;BME280;13680;49.936;11.344;2022-09-27T08:51:06;95012.97;;;10.05;85.41
25855;BME280;13680;49.936;11.344;2022-09-27T08:53:43;95014.72;;;10.25;84.94
25855;BME280;13680;49.936;11.344;2022-09-27T08:56:10;95026.31;;;9.89;85.42
25855;BME280;13680;49.936;11.344;2022-09-27T08:59:00;95018.44;;;10.21;84.09
25855;BME280;13680;49.936;11.344;2022-09-27T09:01:28;95020.22;;;10.16;83.47
25855;BME280;13680;49.936;11.344;2022-09-27T09:03:56;95014.13;;;10.73;81.31
25855;BME280;13680;49.936;11.344;2022-09-27T09:18:13;95029.78;;;10.83;82.24
25855;BME280;13680;49.936;11.344;2022-09-27T09:20:51;95037.09;;;11.14;81.36
25855;BME280;13680;49.936;11.344;2022-09-27T09:26:26;95034.22;;;10.63;83.68
25855;BME280;13680;49.936;11.344;2022-09-27T09:31:48;95031.72;;;11.14;82.96
25855;BME280;13680;49.936;11.344;2022-09-27T09:39:33;95039.38;;;11.60;81.27
25855;BME280;13680;49.936;11.344;2022-09-27T09:42:09;95037.66;;;11.52;79.82
25855;BME280;13680;49.936;11.344;2022-09-27T09:50:17;95042.09;;;11.44;81.14
25855;BME280;13680;49.936;11.344;2022-09-27T09:52:55;95039.03;;;11.30;80.17
25855;BME280;13680;49.936;11.344;2022-09-27T09:55:25;95042.72;;;10.93;81.47
25855;BME280;13680;49.936;11.344;2022-09-27T09:58:23;95043.09;;;11.08;81.42
25855;BME280;13680;49.936;11.344;2022-09-27T10:00:53;95042.03;;;10.96;82.72
25855;BME280;13680;49.936;11.344;2022-09-27T10:03:21;95047.03;;;11.42;81.46
25855;BME280;13680;49.936;11.344;2022-09-27T10:05:46;95045.00;;;11.23;82.25
25855;BME280;13680;49.936;11.344;2022-09-27T10:08:17;95051.28;;;11.59;81.07
25855;BME280;13680;49.936;11.344;2022-09-27T10:10:44;95032.50;;;12.11;79.67
25855;BME280;13680;49.936;11.344;2022-09-27T10:13:14;95034.00;;;12.48;79.79
25855;BME280;13680;49.936;11.344;2022-09-27T10:15:41;95027.94;;;11.95;79.24
25855;BME280;13680;49.936;11.344;2022-09-27T10:18:15;95031.19;;;12.05;79.66
25855;BME280;13680;49.936;11.344;2022-09-27T10:20:47;95036.59;;;12.05;80.20
25855;BME280;13680;49.936;11.344;2022-09-27T10:23:21;95040.16;;;11.77;79.47
25855;BME280;13680;49.936;11.344;2022-09-27T10:25:55;95037.31;;;11.54;79.75
25855;BME280;13680;49.936;11.344;2022-09-27T10:28:39;95039.81;;;11.46;81.76
25855;BME280;13680;49.936;11.344;2022-09-27T10:31:11;95042.59;;;11.98;80.46
25855;BME280;13680;49.936;11.344;2022-09-27T10:33:59;95048.00;;;11.98;79.66
25855;BME280;13680;49.936;11.344;2022-09-27T10:36:28;95058.16;;;11.41;83.20
25855;BME280;13680;49.936;11.344;2022-09-27T10:38:57;95040.25;;;11.65;81.56
25855;BME280;13680;49.936;11.344;2022-09-27T10:41:36;95045.81;;;11.72;81.56
25855;BME280;13680;49.936;11.344;2022-09-27T10:46:44;95037.78;;;12.43;79.57
25855;BME280;13680;49.936;11.344;2022-09-27T10:49:20;95039.69;;;12.42;79.44
25855;BME280;13680;49.936;11.344;2022-09-27T10:51:52;95049.03;;;11.77;78.32
25855;BME280;13680;49.936;11.344;2022-09-27T10:54:24;95049.91;;;11.50;80.89
25855;BME280;13680;49.936;11.344;2022-09-27T10:56:58;95058.72;;;11.18;81.02
25855;BME280;13680;49.936;11.344;2022-09-27T10:59:25;95058.94;;;11.57;79.35
25855;BME280;13680;49.936;11.344;2022-09-27T11:01:52;95059.97;;;11.37;79.07
25855;BME280;13680;49.936;11.344;2022-09-27T11:04:30;95070.38;;;11.54;78.86
25855;BME280;13680;49.936;11.344;2022-09-27T11:09:54;95070.50;;;11.13;79.48
25855;BME280;13680;49.936;11.344;2022-09-27T11:12:21;95075.88;;;10.97;79.89
25855;BME280;13680;49.936;11.344;2022-09-27T11:15:14;95085.47;;;10.70;80.68
25855;BME280;13680;49.936;11.344;2022-09-27T11:18:00;95089.94;;;10.78;81.10
25855;BME280;13680;49.936;11.344;2022-09-27T11:20:43;95086.66;;;11.13;80.47
25855;BME280;13680;49.936;11.344;2022-09-27T11:23:23;95089.53;;;11.21;79.29
25855;BME280;13680;49.936;11.344;2022-09-27T11:39:28;95072.31;;;11.54;78.56
25855;BME280;13680;49.936;11.344;2022-09-27T11:44:52;95073.69;;;11.79;77.11
25855;BME280;13680;49.936;11.344;2022-09-27T11:47:40;95086.88;;;11.37;78.56
25855;BME280;13680;49.936;11.344;2022-09-27T11:50:41;95083.22;;;11.01;80.63
25855;BME280;13680;49.936;11.344;2022-09-27T11:53:22;95067.19;;;11.04;80.60
25855;BME280;13680;49.936;11.344;2022-09-27T11:56:04;95077.16;;;11.32;80.81
25855;BME280;13680;49.936;11.344;2022-09-27T11:58:53;95080.31;;;11.66;79.24
25855;BME280;13680;49.936;11.344;2022-09-27T12:01:40;95075.63;;;11.19;79.77
25855;BME280;13680;49.936;11.344;2022-09-27T12:07:04;95068.56;;;13.01;74.92
25855;BME280;13680;49.936;11.344;2022-09-27T12:09:40;95077.69;;;12.92;74.04
25855;BME280;13680;49.936;11.344;2022-09-27T12:12:22;95064.84;;;13.71;73.32
25855;BME280;13680;49.936;11.344;2022-09-27T12:14:52;95071.63;;;13.38;70.77
25855;BME280;13680;49.936;11.344;2022-09-27T12:17:24;95069.25;;;13.37;70.90
25855;BME280;13680;49.936;11.344;2022-09-27T12:19:53;95073.28;;;12.65;71.42
25855;BME280;13680;49.936;11.344;2022-09-27T12:22:42;95076.81;;;12.88;72.50
25855;BME280;13680;49.936;11.344;2022-09-27T12:25:16;95072.69;;;13.14;71.24
25855;BME280;13680;49.936;11.344;2022-09-27T12:27:57;95098.34;;;12.85;71.87
25855;BME280;13680;49.936;11.344;2022-09-27T12:30:25;95075.78;;;12.73;73.15
25855;BME280;13680;49.936;11.344;2022-09-27T12:33:16;95084.97;;;12.17;74.30
25855;BME280;13680;49.936;11.344;2022-09-27T12:35:50;95091.13;;;12.18;75.55
25855;BME280;13680;49.936;11.344;2022-09-27T12:38:38;95089.22;;;12.54;74.96
25855;BME280;13680;49.936;11.344;2022-09-27T12:41:11;95085.94;;;12.09;75.06
25855;BME280;13680;49.936;11.344;2022-09-27T12:43:41;95082.34;;;12.96;71.02
25855;BME280;13680;49.936;11.344;2022-09-27T12:51:20;95065.00;;;13.16;70.45
25855;BME280;13680;49.936;11.344;2022-09-27T12:56:43;95055.38;;;14.65;63.46
25855;BME280;13680;49.936;11.344;2022-09-27T13:11:28;95045.22;;;15.68;56.94
25855;BME280;13680;49.936;11.344;2022-09-27T13:13:55;95043.28;;;16.17;56.33
25855;BME280;13680;49.936;11.344;2022-09-27T13:16:23;95042.72;;;16.52;55.97
25855;BME280;13680;49.936;11.344;2022-09-27T13:18:59;95049.44;;;16.10;53.51
25855;BME280;13680;49.936;11.344;2022-09-27T13:27:01;95074.19;;;14.01;60.15
25855;BME280;13680;49.936;11.344;2022-09-27T13:29:29;95068.19;;;13.65;61.13
25855;BME280;13680;49.936;11.344;2022-09-27T13:34:40;95065.00;;;13.82;61.95
25855;BME280;13680;49.936;11.344;2022-09-27T13:37:53;95059.16;;;14.30;61.58
25855;BME280;13680;49.936;11.344;2022-09-27T13:40:22;95067.59;;;14.25;61.98
25855;BME280;13680;49.936;11.344;2022-09-27T13:45:41;95062.31;;;14.09;64.73
25855;BME280;13680;49.936;11.344;2022-09-27T13:48:24;95066.69;;;14.17;62.74
25855;BME280;13680;49.936;11.344;2022-09-27T13:50:54;95068.88;;;14.08;63.35
25855;BME280;13680;49.936;11.344;2022-09-27T13:55:52;95067.16;;;13.07;63.53
25855;BME280;13680;49.936;11.344;2022-09-27T14:00:46;95079.00;;;13.22;64.81
25855;BME280;13680;49.936;11.344;2022-09-27T14:03:52;95083.97;;;12.81;68.38
25855;BME280;13680;49.936;11.344;2022-09-27T14:06:26;95075.03;;;13.16;67.98
25855;BME280;13680;49.936;11.344;2022-09-27T14:09:17;95084.78;;;13.20;68.64
25855;BME280;13680;49.936;11.344;2022-09-27T14:11:49;95080.63;;;13.26;70.00
25855;BME280;13680;49.936;11.344;2022-09-27T14:14:21;95078.81;;;13.34;66.75
25855;BME280;13680;49.936;11.344;2022-09-27T14:16:48;95078.94;;;13.18;67.48
25855;BME280;13680;49.936;11.344;2022-09-27T14:19:17;95086.00;;;13.26;68.99
25855;BME280;13680;49.936;11.344;2022-09-27T14:21:43;95083.59;;;13.21;69.19
25855;BME280;13680;49.936;11.344;2022-09-27T14:24:29;95086.88;;;13.11;68.21
25855;BME280;13680;49.936;11.344;2022-09-27T14:27:21;95101.09;;;12.69;69.72
25855;BME280;13680;49.936;11.344;2022-09-27T14:32:26;95125.66;;;12.12;69.27
25855;BME280;13680;49.936;11.344;2022-09-27T14:35:16;95129.47;;;10.78;72.56
25855;BME280;13680;49.936;11.344;2022-09-27T14:38:02;95121.47;;;10.66;73.73
25855;BME280;13680;49.936;11.344;2022-09-27T14:40:28;95117.28;;;11.09;73.11
25855;BME280;13680;49.936;11.344;2022-09-27T14:42:56;95123.16;;;10.99;71.81
25855;BME280;13680;49.936;11.344;2022-09-27T14:45:28;95118.78;;;11.22;72.38
25855;BME280;13680;49.936;11.344;2022-09-27T14:47:59;95117.22;;;11.21;72.16
25855;BME280;13680;49.936;11.344;2022-09-27T14:50:29;95120.53;;;11.30;71.91
25855;BME280;13680;49.936;11.344;2022-09-27T14:52:56;95121.38;;;11.19;72.13
25855;BME280;13680;49.936;11.344;2022-09-27T14:55:26;95125.16;;;10.61;73.09
25855;BME280;13680;49.936;11.344;2022-09-27T14:57:54;95116.59;;;10.84;73.66
25855;BME280;13680;49.936;11.344;2022-09-27T15:00:25;95113.91;;;11.12;73.20
25855;BME280;13680;49.936;11.344;2022-09-27T15:02:53;95116.34;;;11.17;72.98
25855;BME280;13680;49.936;11.344;2022-09-27T15:05:31;95116.47;;;11.37;72.56
25855;BME280;13680;49.936;11.344;2022-09-27T15:08:06;95119.28;;;11.56;72.71
25855;BME280;13680;49.936;11.344;2022-09-27T15:10:35;95114.25;;;11.71;71.67
25855;BME280;13680;49.936;11.344;2022-09-27T15:13:03;95109.66;;;11.71;72.58
25855;BME280;13680;49.936;11.344;2022-09-27T15:15:36;95116.22;;;11.58;73.15